Terminal Aerodrome Forecast
Issued by NWS

Home | Current Version | Previous Version | Graphics & Text | Print | Product List | Glossary On
Versions: 1 2 3 4 5 6 7 8 9 10 11 12 13 14 15 16 17
217
FTUS43 KABR 221124
TAFPIR
TAF
KPIR 221124Z 2212/2312 16010KT P6SM SKC
     FM221800 18018G25KT P6SM FEW250
     FM230400 18013KT P6SM FEW250 WS020/20040KT=

USA.gov is the U.S. government's official web portal to all federal, state and local government web resources and services.